sensor_id;sensor_type;location;lat;lon;timestamp;pressure;altitude;pressure_sealevel;temperature;humidity
50057;BME280;36875;49.468;11.200;2023-06-22T00:01:04;98101.16;;;24.10;51.41
50057;BME280;36875;49.468;11.200;2023-06-22T00:03:30;98101.16;;;24.10;51.51
50057;BME280;36875;49.468;11.200;2023-06-22T00:05:56;98092.91;;;24.10;51.37
50057;BME280;36875;49.468;11.200;2023-06-22T00:08:22;98087.41;;;24.10;51.32
50057;BME280;36875;49.468;11.200;2023-06-22T00:10:48;98088.53;;;24.09;51.53
50057;BME280;36875;49.468;11.200;2023-06-22T00:13:14;98082.22;;;24.08;51.36
50057;BME280;36875;49.468;11.200;2023-06-22T00:15:41;98097.56;;;24.09;50.99
50057;BME280;36875;49.468;11.200;2023-06-22T00:18:08;98095.97;;;24.08;51.18
50057;BME280;36875;49.468;11.200;2023-06-22T00:20:34;98099.53;;;24.09;51.32
50057;BME280;36875;49.468;11.200;2023-06-22T00:23:03;98086.91;;;24.08;51.51
50057;BME280;36875;49.468;11.200;2023-06-22T00:25:33;98091.59;;;24.07;51.64
50057;BME280;36875;49.468;11.200;2023-06-22T00:28:00;98094.34;;;24.07;51.21
50057;BME280;36875;49.468;11.200;2023-06-22T00:30:25;98096.31;;;24.07;51.15
50057;BME280;36875;49.468;11.200;2023-06-22T00:32:51;98097.91;;;24.08;51.48
50057;BME280;36875;49.468;11.200;2023-06-22T00:35:16;98103.41;;;24.08;51.51
50057;BME280;36875;49.468;11.200;2023-06-22T00:37:42;98107.31;;;24.07;50.97
50057;BME280;36875;49.468;11.200;2023-06-22T00:40:08;98105.69;;;24.05;51.08
50057;BME280;36875;49.468;11.200;2023-06-22T00:42:36;98118.28;;;24.07;50.97
50057;BME280;36875;49.468;11.200;2023-06-22T00:45:04;98122.16;;;24.05;51.07
50057;BME280;36875;49.468;11.200;2023-06-22T00:47:29;98115.88;;;24.05;50.97
50057;BME280;36875;49.468;11.200;2023-06-22T00:49:55;98117.81;;;24.04;51.54
50057;BME280;36875;49.468;11.200;2023-06-22T00:52:22;98119.75;;;24.04;51.00
50057;BME280;36875;49.468;11.200;2023-06-22T00:54:52;98129.16;;;24.03;51.25
50057;BME280;36875;49.468;11.200;2023-06-22T00:57:19;98128.00;;;24.04;51.01
50057;BME280;36875;49.468;11.200;2023-06-22T00:59:45;98132.38;;;24.05;51.32
50057;BME280;36875;49.468;11.200;2023-06-22T01:02:14;98125.25;;;24.04;51.23
50057;BME280;36875;49.468;11.200;2023-06-22T01:04:40;98120.56;;;24.04;51.05
50057;BME280;36875;49.468;11.200;2023-06-22T01:07:12;98113.44;;;24.03;51.25
50057;BME280;36875;49.468;11.200;2023-06-22T01:09:44;98117.69;;;24.01;51.43
50057;BME280;36875;49.468;11.200;2023-06-22T01:12:16;98132.69;;;24.03;51.12
50057;BME280;36875;49.468;11.200;2023-06-22T01:14:47;98133.03;;;24.02;50.77
50057;BME280;36875;49.468;11.200;2023-06-22T01:17:17;98119.28;;;24.02;51.42
50057;BME280;36875;49.468;11.200;2023-06-22T01:19:46;98099.25;;;24.01;51.16
50057;BME280;36875;49.468;11.200;2023-06-22T01:22:21;98094.06;;;24.00;51.20
50057;BME280;36875;49.468;11.200;2023-06-22T01:24:55;98093.75;;;24.01;50.90
50057;BME280;36875;49.468;11.200;2023-06-22T01:27:32;98087.44;;;24.01;50.93
50057;BME280;36875;49.468;11.200;2023-06-22T01:29:59;98073.69;;;24.01;50.77
50057;BME280;36875;49.468;11.200;2023-06-22T01:32:28;98069.34;;;24.00;50.87
50057;BME280;36875;49.468;11.200;2023-06-22T01:34:56;98069.34;;;24.00;50.91
50057;BME280;36875;49.468;11.200;2023-06-22T01:37:23;98050.88;;;24.00;51.05
50057;BME280;36875;49.468;11.200;2023-06-22T01:39:49;98044.59;;;24.00;50.78
50057;BME280;36875;49.468;11.200;2023-06-22T01:42:15;98047.34;;;24.00;50.70
50057;BME280;36875;49.468;11.200;2023-06-22T01:44:42;98049.63;;;23.98;50.89
50057;BME280;36875;49.468;11.200;2023-06-22T01:47:10;98060.28;;;23.99;50.85
50057;BME280;36875;49.468;11.200;2023-06-22T01:49:36;98067.75;;;23.99;51.02
50057;BME280;36875;49.468;11.200;2023-06-22T01:52:02;98062.25;;;23.99;50.83
50057;BME280;36875;49.468;11.200;2023-06-22T01:54:31;98071.28;;;23.99;51.02
50057;BME280;36875;49.468;11.200;2023-06-22T01:56:56;98066.91;;;23.98;51.24
50057;BME280;36875;49.468;11.200;2023-06-22T01:59:25;98064.16;;;23.98;50.88
50057;BME280;36875;49.468;11.200;2023-06-22T02:01:58;98058.19;;;23.96;50.95
50057;BME280;36875;49.468;11.200;2023-06-22T02:04:26;98059.81;;;23.97;50.83
50057;BME280;36875;49.468;11.200;2023-06-22T02:06:55;98057.41;;;23.96;51.08
50057;BME280;36875;49.468;11.200;2023-06-22T02:09:23;98062.56;;;23.97;50.83
50057;BME280;36875;49.468;11.200;2023-06-22T02:11:50;98060.94;;;23.96;51.04
50057;BME280;36875;49.468;11.200;2023-06-22T02:14:20;98058.19;;;23.96;50.89
50057;BME280;36875;49.468;11.200;2023-06-22T02:16:46;98066.44;;;23.96;51.25
50057;BME280;36875;49.468;11.200;2023-06-22T02:19:12;98067.28;;;23.97;51.02
50057;BME280;36875;49.468;11.200;2023-06-22T02:21:39;98078.59;;;23.95;51.02
50057;BME280;36875;49.468;11.200;2023-06-22T02:24:04;98074.69;;;23.96;50.95
50057;BME280;36875;49.468;11.200;2023-06-22T02:26:30;98073.91;;;23.96;50.68
50057;BME280;36875;49.468;11.200;2023-06-22T02:28:57;98067.59;;;23.95;51.00
50057;BME280;36875;49.468;11.200;2023-06-22T02:31:22;98076.66;;;23.96;50.63
50057;BME280;36875;49.468;11.200;2023-06-22T02:33:48;98079.72;;;23.94;50.91
50057;BME280;36875;49.468;11.200;2023-06-22T02:36:14;98066.78;;;23.95;50.86
50057;BME280;36875;49.468;11.200;2023-06-22T02:38:42;98082.47;;;23.94;51.06
50057;BME280;36875;49.468;11.200;2023-06-22T02:41:13;98079.72;;;23.94;50.99
50057;BME280;36875;49.468;11.200;2023-06-22T02:43:43;98074.22;;;23.94;50.91
50057;BME280;36875;49.468;11.200;2023-06-22T02:46:09;98080.88;;;23.93;51.11
50057;BME280;36875;49.468;11.200;2023-06-22T02:48:35;98098.16;;;23.94;51.18
50057;BME280;36875;49.468;11.200;2023-06-22T02:51:00;98109.16;;;23.94;50.81
50057;BME280;36875;49.468;11.200;2023-06-22T02:53:26;98124.84;;;23.93;50.62
50057;BME280;36875;49.468;11.200;2023-06-22T02:55:52;98153.13;;;23.94;50.70
50057;BME280;36875;49.468;11.200;2023-06-22T02:58:18;98168.84;;;23.93;50.64
50057;BME280;36875;49.468;11.200;2023-06-22T03:00:43;98191.63;;;23.94;50.97
50057;BME280;36875;49.468;11.200;2023-06-22T03:03:09;98197.13;;;23.94;50.88
50057;BME280;36875;49.468;11.200;2023-06-22T03:05:34;98200.19;;;23.92;50.60
50057;BME280;36875;49.468;11.200;2023-06-22T03:08:00;98196.66;;;23.92;50.62
50057;BME280;36875;49.468;11.200;2023-06-22T03:10:26;98195.50;;;23.93;50.75
50057;BME280;36875;49.468;11.200;2023-06-22T03:12:53;98194.69;;;23.92;51.12
50057;BME280;36875;49.468;11.200;2023-06-22T03:15:18;98193.91;;;23.92;50.65
50057;BME280;36875;49.468;11.200;2023-06-22T03:17:44;98194.69;;;23.92;50.91
50057;BME280;36875;49.468;11.200;2023-06-22T03:20:10;98189.53;;;23.91;50.88
50057;BME280;36875;49.468;11.200;2023-06-22T03:22:37;98194.22;;;23.90;50.82
50057;BME280;36875;49.468;11.200;2023-06-22T03:25:03;98188.41;;;23.92;50.60
50057;BME280;36875;49.468;11.200;2023-06-22T03:27:29;98184.03;;;23.91;50.87
50057;BME280;36875;49.468;11.200;2023-06-22T03:29:56;98185.97;;;23.90;50.88
50057;BME280;36875;49.468;11.200;2023-06-22T03:32:22;98177.72;;;23.90;50.64
50057;BME280;36875;49.468;11.200;2023-06-22T03:34:48;98171.44;;;23.90;50.73
50057;BME280;36875;49.468;11.200;2023-06-22T03:37:13;98164.31;;;23.89;50.67
50057;BME280;36875;49.468;11.200;2023-06-22T03:39:39;98162.34;;;23.89;50.67
50057;BME280;36875;49.468;11.200;2023-06-22T03:42:06;98163.19;;;23.90;50.59
50057;BME280;36875;49.468;11.200;2023-06-22T03:44:31;98155.75;;;23.90;50.45
50057;BME280;36875;49.468;11.200;2023-06-22T03:46:58;98157.69;;;23.90;50.66
50057;BME280;36875;49.468;11.200;2023-06-22T03:49:24;98152.19;;;23.90;50.87
50057;BME280;36875;49.468;11.200;2023-06-22T03:51:49;98143.13;;;23.89;50.73
50057;BME280;36875;49.468;11.200;2023-06-22T03:54:15;98142.31;;;23.89;50.78
50057;BME280;36875;49.468;11.200;2023-06-22T03:56:40;98150.56;;;23.89;50.70
50057;BME280;36875;49.468;11.200;2023-06-22T03:59:06;98139.91;;;23.87;50.32
50057;BME280;36875;49.468;11.200;2023-06-22T04:01:31;98124.72;;;23.90;50.77
50057;BME280;36875;49.468;11.200;2023-06-22T04:03:58;98123.88;;;23.89;50.47
50057;BME280;36875;49.468;11.200;2023-06-22T04:06:23;98127.78;;;23.88;50.31
50057;BME280;36875;49.468;11.200;2023-06-22T04:08:49;98119.22;;;23.90;50.29
50057;BME280;36875;49.468;11.200;2023-06-22T04:11:16;98109.00;;;23.90;50.46
50057;BME280;36875;49.468;11.200;2023-06-22T04:13:41;98111.75;;;23.90;50.69
50057;BME280;36875;49.468;11.200;2023-06-22T04:16:07;98118.84;;;23.91;50.12
50057;BME280;36875;49.468;11.200;2023-06-22T04:18:32;98099.63;;;23.91;50.53
50057;BME280;36875;49.468;11.200;2023-06-22T04:20:59;98089.44;;;23.92;50.53
50057;BME280;36875;49.468;11.200;2023-06-22T04:23:24;98081.25;;;23.83;50.47
50057;BME280;36875;49.468;11.200;2023-06-22T04:25:50;98083.13;;;23.91;50.72
50057;BME280;36875;49.468;11.200;2023-06-22T04:28:16;98068.59;;;23.91;50.58
50057;BME280;36875;49.468;11.200;2023-06-22T04:30:42;98064.25;;;23.90;50.79
50057;BME280;36875;49.468;11.200;2023-06-22T04:33:12;98081.53;;;23.90;50.86
50057;BME280;36875;49.468;11.200;2023-06-22T04:35:37;98078.78;;;23.90;50.46
50057;BME280;36875;49.468;11.200;2023-06-22T04:38:08;98055.63;;;23.91;50.31
50057;BME280;36875;49.468;11.200;2023-06-22T04:40:33;98047.41;;;23.91;50.74
50057;BME280;36875;49.468;11.200;2023-06-22T04:42:59;98051.75;;;23.92;50.53
50057;BME280;36875;49.468;11.200;2023-06-22T04:45:27;98067.47;;;23.92;50.76
50057;BME280;36875;49.468;11.200;2023-06-22T04:47:53;98060.00;;;23.92;50.41
50057;BME280;36875;49.468;11.200;2023-06-22T04:50:18;98041.56;;;23.93;50.39
50057;BME280;36875;49.468;11.200;2023-06-22T04:52:46;98027.03;;;23.92;50.17
50057;BME280;36875;49.468;11.200;2023-06-22T04:55:14;98030.44;;;23.89;50.16
50057;BME280;36875;49.468;11.200;2023-06-22T04:57:43;98049.81;;;23.93;50.39
50057;BME280;36875;49.468;11.200;2023-06-22T05:00:14;98052.22;;;23.94;50.58
50057;BME280;36875;49.468;11.200;2023-06-22T05:02:43;98045.63;;;23.95;50.26
50057;BME280;36875;49.468;11.200;2023-06-22T05:05:10;98037.84;;;23.97;50.61
50057;BME280;36875;49.468;11.200;2023-06-22T05:07:39;98039.88;;;24.00;50.65
50057;BME280;36875;49.468;11.200;2023-06-22T05:10:08;98041.19;;;24.03;50.50
50057;BME280;36875;49.468;11.200;2023-06-22T05:12:35;98035.81;;;24.07;50.85
50057;BME280;36875;49.468;11.200;2023-06-22T05:15:01;98036.28;;;24.09;50.29
50057;BME280;36875;49.468;11.200;2023-06-22T05:17:26;98039.50;;;24.11;50.32
50057;BME280;36875;49.468;11.200;2023-06-22T05:19:52;98021.88;;;24.12;50.48
50057;BME280;36875;49.468;11.200;2023-06-22T05:22:18;98029.31;;;24.11;50.81
50057;BME280;36875;49.468;11.200;2023-06-22T05:24:43;98018.78;;;24.13;50.56
50057;BME280;36875;49.468;11.200;2023-06-22T05:27:09;98026.69;;;24.15;50.92
50057;BME280;36875;49.468;11.200;2023-06-22T05:29:36;98027.66;;;24.19;50.61
50057;BME280;36875;49.468;11.200;2023-06-22T05:32:02;98033.75;;;24.24;50.48
50057;BME280;36875;49.468;11.200;2023-06-22T05:34:28;98031.13;;;24.28;50.49
50057;BME280;36875;49.468;11.200;2023-06-22T05:36:53;98027.34;;;24.33;51.10
50057;BME280;36875;49.468;11.200;2023-06-22T05:39:19;98029.44;;;24.36;50.68
50057;BME280;36875;49.468;11.200;2023-06-22T05:41:45;98034.59;;;24.37;50.68
50057;BME280;36875;49.468;11.200;2023-06-22T05:44:11;98033.50;;;24.30;52.40
50057;BME280;36875;49.468;11.200;2023-06-22T05:46:42;98026.56;;;24.11;54.87
50057;BME280;36875;49.468;11.200;2023-06-22T05:49:14;98038.00;;;24.13;54.61
50057;BME280;36875;49.468;11.200;2023-06-22T05:51:40;98028.03;;;24.09;54.89
50057;BME280;36875;49.468;11.200;2023-06-22T05:54:06;98028.22;;;24.03;55.98
50057;BME280;36875;49.468;11.200;2023-06-22T05:56:33;98016.31;;;23.99;55.99
50057;BME280;36875;49.468;11.200;2023-06-22T05:58:58;98023.28;;;24.18;55.05
50057;BME280;36875;49.468;11.200;2023-06-22T06:01:24;98015.75;;;24.27;54.22
50057;BME280;36875;49.468;11.200;2023-06-22T06:03:52;98013.00;;;24.27;54.77
50057;BME280;36875;49.468;11.200;2023-06-22T06:06:18;98009.72;;;24.34;54.39
50057;BME280;36875;49.468;11.200;2023-06-22T06:08:53;98008.31;;;24.28;53.46
50057;BME280;36875;49.468;11.200;2023-06-22T06:11:19;98016.81;;;24.35;54.17
50057;BME280;36875;49.468;11.200;2023-06-22T06:13:44;98009.34;;;24.35;54.67
50057;BME280;36875;49.468;11.200;2023-06-22T06:16:10;98009.63;;;24.42;54.33
50057;BME280;36875;49.468;11.200;2023-06-22T06:18:36;98012.84;;;24.44;54.07
50057;BME280;36875;49.468;11.200;2023-06-22T06:21:04;98010.56;;;24.47;53.83
50057;BME280;36875;49.468;11.200;2023-06-22T06:23:29;98009.06;;;24.49;53.93
50057;BME280;36875;49.468;11.200;2023-06-22T06:25:55;98006.00;;;24.51;53.66
50057;BME280;36875;49.468;11.200;2023-06-22T06:28:20;98000.19;;;24.52;53.37
50057;BME280;36875;49.468;11.200;2023-06-22T06:30:46;97999.03;;;24.53;53.29
50057;BME280;36875;49.468;11.200;2023-06-22T06:33:12;97994.81;;;24.56;53.26
50057;BME280;36875;49.468;11.200;2023-06-22T06:35:38;98000.31;;;24.56;53.24
50057;BME280;36875;49.468;11.200;2023-06-22T06:38:05;97997.19;;;24.57;53.07
50057;BME280;36875;49.468;11.200;2023-06-22T06:40:30;97994.13;;;24.59;53.03
50057;BME280;36875;49.468;11.200;2023-06-22T06:42:56;97985.84;;;24.59;52.93
50057;BME280;36875;49.468;11.200;2023-06-22T06:45:23;97982.78;;;24.60;53.08
50057;BME280;36875;49.468;11.200;2023-06-22T06:47:49;97982.44;;;24.62;52.61
50057;BME280;36875;49.468;11.200;2023-06-22T06:50:16;97981.31;;;24.63;52.99
50057;BME280;36875;49.468;11.200;2023-06-22T06:52:43;97984.38;;;24.61;53.00
50057;BME280;36875;49.468;11.200;2023-06-22T06:55:10;97994.38;;;24.66;53.17
50057;BME280;36875;49.468;11.200;2023-06-22T06:57:37;97982.22;;;24.67;53.78
50057;BME280;36875;49.468;11.200;2023-06-22T07:00:04;97982.22;;;24.67;53.35
50057;BME280;36875;49.468;11.200;2023-06-22T07:02:34;97967.75;;;24.70;54.39
50057;BME280;36875;49.468;11.200;2023-06-22T07:05:00;97963.53;;;24.73;53.48
50057;BME280;36875;49.468;11.200;2023-06-22T07:07:26;97962.75;;;24.72;53.71
50057;BME280;36875;49.468;11.200;2023-06-22T07:09:51;97957.69;;;24.74;53.58
50057;BME280;36875;49.468;11.200;2023-06-22T07:12:18;97959.28;;;24.75;53.25
50057;BME280;36875;49.468;11.200;2023-06-22T07:14:43;97955.41;;;24.76;53.31
50057;BME280;36875;49.468;11.200;2023-06-22T07:17:09;97958.16;;;24.76;53.22
50057;BME280;36875;49.468;11.200;2023-06-22T07:19:34;97952.66;;;24.76;52.75
50057;BME280;36875;49.468;11.200;2023-06-22T07:22:00;97952.31;;;24.78;53.00
50057;BME280;36875;49.468;11.200;2023-06-22T07:24:26;97950.38;;;24.78;52.70
50057;BME280;36875;49.468;11.200;2023-06-22T07:26:52;97961.81;;;24.80;52.49
50057;BME280;36875;49.468;11.200;2023-06-22T07:29:19;97957.13;;;24.81;52.45
50057;BME280;36875;49.468;11.200;2023-06-22T07:31:46;97951.16;;;24.79;52.57
50057;BME280;36875;49.468;11.200;2023-06-22T07:34:12;97945.78;;;24.82;52.22
50057;BME280;36875;49.468;11.200;2023-06-22T07:36:38;97948.97;;;24.85;52.33
50057;BME280;36875;49.468;11.200;2023-06-22T07:39:03;97953.81;;;24.88;52.41
50057;BME280;36875;49.468;11.200;2023-06-22T07:41:29;97953.81;;;24.88;52.11
50057;BME280;36875;49.468;11.200;2023-06-22T07:43:55;97946.34;;;24.88;52.00
50057;BME280;36875;49.468;11.200;2023-06-22T07:46:22;97944.41;;;24.89;52.15
50057;BME280;36875;49.468;11.200;2023-06-22T07:48:47;97939.72;;;24.89;52.50
50057;BME280;36875;49.468;11.200;2023-06-22T07:51:13;97937.75;;;24.90;51.77
50057;BME280;36875;49.468;11.200;2023-06-22T07:53:39;97945.66;;;24.91;52.44
50057;BME280;36875;49.468;11.200;2023-06-22T07:56:05;97948.09;;;24.93;51.60
50057;BME280;36875;49.468;11.200;2023-06-22T07:58:32;97947.75;;;24.94;51.82
50057;BME280;36875;49.468;11.200;2023-06-22T08:00:58;97940.28;;;24.95;51.76
50057;BME280;36875;49.468;11.200;2023-06-22T08:03:24;97932.03;;;24.95;51.61
50057;BME280;36875;49.468;11.200;2023-06-22T08:05:50;97935.56;;;24.95;51.90
50057;BME280;36875;49.468;11.200;2023-06-22T08:08:16;97934.44;;;24.96;51.98
50057;BME280;36875;49.468;11.200;2023-06-22T08:10:41;97936.03;;;24.97;51.58
50057;BME280;36875;49.468;11.200;2023-06-22T08:13:07;97939.59;;;24.98;51.60
50057;BME280;36875;49.468;11.200;2023-06-22T08:15:33;97936.84;;;24.98;51.96
50057;BME280;36875;49.468;11.200;2023-06-22T08:17:58;97934.91;;;24.98;51.48
50057;BME280;36875;49.468;11.200;2023-06-22T08:20:27;97936.03;;;24.97;51.58
50057;BME280;36875;49.468;11.200;2023-06-22T08:22:56;97940.06;;;25.00;51.79
50057;BME280;36875;49.468;11.200;2023-06-22T08:25:23;97926.75;;;25.02;51.56
50057;BME280;36875;49.468;11.200;2023-06-22T08:27:48;97926.75;;;25.02;51.85
50057;BME280;36875;49.468;11.200;2023-06-22T08:30:15;97925.59;;;25.03;51.69
50057;BME280;36875;49.468;11.200;2023-06-22T08:32:41;97916.19;;;25.04;51.67
50057;BME280;36875;49.468;11.200;2023-06-22T08:35:07;97920.53;;;25.05;51.20
50057;BME280;36875;49.468;11.200;2023-06-22T08:37:37;97918.16;;;25.04;51.68
50057;BME280;36875;49.468;11.200;2023-06-22T08:40:06;97923.28;;;25.05;51.42
50057;BME280;36875;49.468;11.200;2023-06-22T08:42:34;97924.44;;;25.04;51.20
50057;BME280;36875;49.468;11.200;2023-06-22T08:44:59;97926.88;;;25.06;51.23
50057;BME280;36875;49.468;11.200;2023-06-22T08:47:28;97918.94;;;25.04;51.58
50057;BME280;36875;49.468;11.200;2023-06-22T08:49:53;97931.22;;;25.07;51.07
50057;BME280;36875;49.468;11.200;2023-06-22T08:52:19;97939.13;;;25.08;51.50
50057;BME280;36875;49.468;11.200;2023-06-22T08:54:47;97934.78;;;25.07;51.01
50057;BME280;36875;49.468;11.200;2023-06-22T08:57:12;97930.06;;;25.08;51.17
50057;BME280;36875;49.468;11.200;2023-06-22T08:59:38;97925.38;;;25.08;50.99
50057;BME280;36875;49.468;11.200;2023-06-22T09:02:04;97921.47;;;25.09;51.39
50057;BME280;36875;49.468;11.200;2023-06-22T09:04:32;97916.75;;;25.10;51.39
50057;BME280;36875;49.468;11.200;2023-06-22T09:07:00;97917.91;;;25.09;50.98
50057;BME280;36875;49.468;11.200;2023-06-22T09:09:26;97916.31;;;25.08;51.04
50057;BME280;36875;49.468;11.200;2023-06-22T09:11:52;97915.63;;;25.11;51.38
50057;BME280;36875;49.468;11.200;2023-06-22T09:14:18;97909.63;;;25.09;51.34
50057;BME280;36875;49.468;11.200;2023-06-22T09:16:44;97916.75;;;25.10;51.26
50057;BME280;36875;49.468;11.200;2023-06-22T09:19:09;97915.25;;;25.12;51.17
50057;BME280;36875;49.468;11.200;2023-06-22T09:21:35;97904.25;;;25.12;51.39
50057;BME280;36875;49.468;11.200;2023-06-22T09:24:01;97908.63;;;25.13;51.40
50057;BME280;36875;49.468;11.200;2023-06-22T09:26:27;97892.09;;;25.13;51.16
50057;BME280;36875;49.468;11.200;2023-06-22T09:28:53;97893.69;;;25.14;51.03
50057;BME280;36875;49.468;11.200;2023-06-22T09:31:19;97881.53;;;25.15;51.19
50057;BME280;36875;49.468;11.200;2023-06-22T09:33:50;97871.31;;;25.16;50.89
50057;BME280;36875;49.468;11.200;2023-06-22T09:36:16;97870.06;;;25.13;51.22
50057;BME280;36875;49.468;11.200;2023-06-22T09:38:42;97874.06;;;25.16;51.20
50057;BME280;36875;49.468;11.200;2023-06-22T09:41:07;97862.72;;;25.17;51.11
50057;BME280;36875;49.468;11.200;2023-06-22T09:43:33;97861.91;;;25.17;50.99
50057;BME280;36875;49.468;11.200;2023-06-22T09:46:02;97865.47;;;25.17;51.06
50057;BME280;36875;49.468;11.200;2023-06-22T09:48:28;97855.25;;;25.18;51.02
50057;BME280;36875;49.468;11.200;2023-06-22T09:50:54;97854.09;;;25.19;51.17
50057;BME280;36875;49.468;11.200;2023-06-22T09:53:20;97851.34;;;25.19;50.84
50057;BME280;36875;49.468;11.200;2023-06-22T09:55:46;97853.31;;;25.18;50.71
50057;BME280;36875;49.468;11.200;2023-06-22T09:58:11;97847.47;;;25.20;50.57
50057;BME280;36875;49.468;11.200;2023-06-22T10:00:37;97851.81;;;25.21;51.12
50057;BME280;36875;49.468;11.200;2023-06-22T10:03:03;97845.16;;;25.22;51.13
50057;BME280;36875;49.468;11.200;2023-06-22T10:05:29;97836.91;;;25.22;50.52
50057;BME280;36875;49.468;11.200;2023-06-22T10:07:54;97832.53;;;25.21;51.00
50057;BME280;36875;49.468;11.200;2023-06-22T10:10:20;97840.44;;;25.23;50.58
50057;BME280;36875;49.468;11.200;2023-06-22T10:12:47;97832.97;;;25.23;51.02
50057;BME280;36875;49.468;11.200;2023-06-22T10:15:13;97828.31;;;25.24;50.60
50057;BME280;36875;49.468;11.200;2023-06-22T10:17:38;97831.06;;;25.24;50.88
50057;BME280;36875;49.468;11.200;2023-06-22T10:20:07;97816.94;;;25.25;51.01
50057;BME280;36875;49.468;11.200;2023-06-22T10:22:39;97818.09;;;25.24;50.86
50057;BME280;36875;49.468;11.200;2023-06-22T10:25:06;97821.31;;;25.26;50.86
50057;BME280;36875;49.468;11.200;2023-06-22T10:27:31;97819.56;;;25.21;50.79
50057;BME280;36875;49.468;11.200;2023-06-22T10:29:57;97821.97;;;25.23;50.30
50057;BME280;36875;49.468;11.200;2023-06-22T10:32:23;97840.25;;;25.28;50.26
50057;BME280;36875;49.468;11.200;2023-06-22T10:34:48;97839.06;;;25.29;50.46
50057;BME280;36875;49.468;11.200;2023-06-22T10:37:15;97844.25;;;25.30;50.59
50057;BME280;36875;49.468;11.200;2023-06-22T10:39:40;97835.97;;;25.30;50.76
50057;BME280;36875;49.468;11.200;2023-06-22T10:42:06;97837.59;;;25.31;50.88
50057;BME280;36875;49.468;11.200;2023-06-22T10:44:32;97838.38;;;25.32;50.81
50057;BME280;36875;49.468;11.200;2023-06-22T10:46:57;97837.25;;;25.33;50.68
50057;BME280;36875;49.468;11.200;2023-06-22T10:49:23;97840.78;;;25.33;50.74
50057;BME280;36875;49.468;11.200;2023-06-22T10:51:48;97839.63;;;25.34;50.34
50057;BME280;36875;49.468;11.200;2023-06-22T10:54:15;97849.06;;;25.33;50.91
50057;BME280;36875;49.468;11.200;2023-06-22T10:56:43;97860.53;;;25.35;50.73
50057;BME280;36875;49.468;11.200;2023-06-22T10:59:08;97853.88;;;25.36;50.50
50057;BME280;36875;49.468;11.200;2023-06-22T11:01:34;97854.69;;;25.37;50.76
50057;BME280;36875;49.468;11.200;2023-06-22T11:04:00;97843.66;;;25.37;50.62
50057;BME280;36875;49.468;11.200;2023-06-22T11:06:25;97838.16;;;25.37;50.85
50057;BME280;36875;49.468;11.200;2023-06-22T11:08:51;97844.09;;;25.39;50.46
50057;BME280;36875;49.468;11.200;2023-06-22T11:11:18;97833.88;;;25.39;50.87
50057;BME280;36875;49.468;11.200;2023-06-22T11:13:43;97832.75;;;25.41;50.42
50057;BME280;36875;49.468;11.200;2023-06-22T11:16:09;97828.03;;;25.41;50.80
50057;BME280;36875;49.468;11.200;2023-06-22T11:18:37;97822.97;;;25.43;50.81
50057;BME280;36875;49.468;11.200;2023-06-22T11:21:03;97810.38;;;25.42;50.46
50057;BME280;36875;49.468;11.200;2023-06-22T11:23:28;97811.16;;;25.43;50.46
50057;BME280;36875;49.468;11.200;2023-06-22T11:25:54;97801.72;;;25.44;50.91
50057;BME280;36875;49.468;11.200;2023-06-22T11:28:21;97799.78;;;25.44;50.73
50057;BME280;36875;49.468;11.200;2023-06-22T11:30:47;97798.19;;;25.43;50.42
50057;BME280;36875;49.468;11.200;2023-06-22T11:33:12;97793.94;;;25.46;50.56
50057;BME280;36875;49.468;11.200;2023-06-22T11:35:38;97791.53;;;25.44;50.93
50057;BME280;36875;49.468;11.200;2023-06-22T11:38:03;97790.69;;;25.44;50.90
50057;BME280;36875;49.468;11.200;2023-06-22T11:40:30;97795.88;;;25.45;50.63
50057;BME280;36875;49.468;11.200;2023-06-22T11:42:55;97784.50;;;25.47;50.62
50057;BME280;36875;49.468;11.200;2023-06-22T11:45:22;97779.00;;;25.47;50.40
50057;BME280;36875;49.468;11.200;2023-06-22T11:47:48;97780.94;;;25.46;50.72
50057;BME280;36875;49.468;11.200;2023-06-22T11:50:14;97778.66;;;25.48;50.35
50057;BME280;36875;49.468;11.200;2023-06-22T11:52:39;97778.66;;;25.48;50.78
50057;BME280;36875;49.468;11.200;2023-06-22T11:55:05;97776.69;;;25.49;50.42
50057;BME280;36875;49.468;11.200;2023-06-22T11:57:33;97763.69;;;25.49;50.35
50057;BME280;36875;49.468;11.200;2023-06-22T11:59:58;97758.19;;;25.49;50.19
50057;BME280;36875;49.468;11.200;2023-06-22T12:02:25;97750.41;;;25.51;50.26
50057;BME280;36875;49.468;11.200;2023-06-22T12:04:51;97749.69;;;25.54;50.39
50057;BME280;36875;49.468;11.200;2023-06-22T12:07:17;97746.91;;;25.54;50.63
50057;BME280;36875;49.468;11.200;2023-06-22T12:09:43;97735.91;;;25.54;50.68
50057;BME280;36875;49.468;11.200;2023-06-22T12:12:11;97732.34;;;25.54;50.83
50057;BME280;36875;49.468;11.200;2023-06-22T12:14:36;97728.81;;;25.53;50.24
50057;BME280;36875;49.468;11.200;2023-06-22T12:17:02;97734.31;;;25.53;50.73
50057;BME280;36875;49.468;11.200;2023-06-22T12:19:29;97734.66;;;25.52;50.24
50057;BME280;36875;49.468;11.200;2023-06-22T12:21:54;97725.22;;;25.53;50.39
50057;BME280;36875;49.468;11.200;2023-06-22T12:24:20;97707.09;;;25.52;50.67
50057;BME280;36875;49.468;11.200;2023-06-22T12:26:45;97713.41;;;25.52;50.69
50057;BME280;36875;49.468;11.200;2023-06-22T12:29:11;97708.69;;;25.53;50.29
50057;BME280;36875;49.468;11.200;2023-06-22T12:31:36;97700.44;;;25.53;50.59
50057;BME280;36875;49.468;11.200;2023-06-22T12:34:04;97688.16;;;25.50;50.83
50057;BME280;36875;49.468;11.200;2023-06-22T12:36:31;97681.06;;;25.49;50.10
50057;BME280;36875;49.468;11.200;2023-06-22T12:38:57;97669.25;;;25.49;50.73
50057;BME280;36875;49.468;11.200;2023-06-22T12:41:23;97678.75;;;25.51;50.42
50057;BME280;36875;49.468;11.200;2023-06-22T12:43:48;97662.25;;;25.51;50.65
50057;BME280;36875;49.468;11.200;2023-06-22T12:46:14;97662.34;;;25.55;50.34